Time;durP1;ratioP1;P1;durP2;ratioP2;P2;SDS_P1;SDS_P2;PMS_P1;PMS_P2;Temp;Humidity;BMP_temperature;BMP_pressure;BME280_temperature;BME280_humidity;BME280_pressure;Samples;Min_cycle;Max_cycle;Signal;HPM_P1;HPM_P2
2023/12/04 00:00:03;;;;;;;10.13;7.15;;;13.50;73.70;;;;;;4958663;28;20113;-82
2023/12/04 00:02:28;;;;;;;10.55;7.35;;;13.60;73.90;;;;;;4958722;28;20029;-82
2023/12/04 00:07:44;;;;;;;10.48;6.88;;;13.60;73.80;;;;;;4976451;28;20062;-82
2023/12/04 00:10:10;;;;;;;10.20;6.88;;;13.50;73.80;;;;;;4958684;28;20027;-82
2023/12/04 00:12:35;;;;;;;10.05;6.93;;;13.50;73.80;;;;;;4958584;28;20041;-82
2023/12/04 00:15:01;;;;;;;9.60;6.57;;;13.50;73.80;;;;;;4958660;28;20479;-81
2023/12/04 00:17:26;;;;;;;9.70;6.78;;;13.50;73.70;;;;;;4958610;28;20022;-82
2023/12/04 00:19:52;;;;;;;9.27;6.60;;;13.50;73.70;;;;;;4958229;28;20491;-82
2023/12/04 00:22:17;;;;;;;10.43;6.97;;;13.50;73.70;;;;;;4958513;28;20023;-82
2023/12/04 00:24:43;;;;;;;8.93;6.13;;;13.60;73.70;;;;;;4958524;28;20034;-82
2023/12/04 00:27:08;;;;;;;10.30;7.15;;;13.60;73.70;;;;;;4958282;28;20065;-82
2023/12/04 00:29:39;;;;;;;9.52;6.60;;;13.60;73.70;;;;;;4958172;28;20114;-82
2023/12/04 00:32:08;;;;;;;9.57;6.57;;;13.60;73.70;;;;;;4975516;28;20483;-82
2023/12/04 00:34:41;;;;;;;10.00;6.85;;;13.60;73.60;;;;;;4958357;28;20085;-82
2023/12/04 00:37:07;;;;;;;9.32;6.53;;;13.50;73.60;;;;;;4957916;28;20066;-82
2023/12/04 00:39:32;;;;;;;10.25;6.95;;;13.60;73.60;;;;;;4958049;28;20503;-82
2023/12/04 00:41:58;;;;;;;9.43;6.47;;;13.60;73.50;;;;;;4975640;28;20034;-83
2023/12/04 00:44:23;;;;;;;10.57;6.95;;;13.50;73.40;;;;;;4958114;28;20089;-82
2023/12/04 00:46:49;;;;;;;9.77;6.40;;;13.50;73.60;;;;;;4957946;28;20042;-82
2023/12/04 00:49:14;;;;;;;9.48;6.50;;;13.50;73.50;;;;;;4957285;28;20038;-82
2023/12/04 00:54:43;;;;;;;10.32;6.82;;;13.60;73.50;;;;;;4975466;28;20392;-82
2023/12/04 00:57:09;;;;;;;9.32;6.28;;;13.60;73.50;;;;;;4957968;28;20034;-82
2023/12/04 00:59:34;;;;;;;10.43;7.20;;;13.60;73.50;;;;;;4957568;28;20114;-81
2023/12/04 01:02:00;;;;;;;9.48;6.78;;;13.60;73.50;;;;;;4957625;28;20112;-81
2023/12/04 01:04:26;;;;;;;9.32;6.22;;;13.50;73.40;;;;;;4957725;28;20027;-82
2023/12/04 01:06:52;;;;;;;9.02;5.85;;;13.50;73.40;;;;;;4957647;28;20058;-82
2023/12/04 01:09:17;;;;;;;9.90;6.63;;;13.50;73.40;;;;;;4957489;28;20500;-82
2023/12/04 01:11:43;;;;;;;9.40;6.18;;;13.60;73.50;;;;;;4957539;28;20034;-82
2023/12/04 01:27:37;;;;;;;9.57;6.47;;;13.60;73.40;;;;;;4975492;28;20029;-82
2023/12/04 01:30:44;;;;;;;8.88;6.10;;;13.50;73.30;;;;;;4945783;28;20034;-82
2023/12/04 01:33:37;;;;;;;8.90;6.22;;;13.50;73.40;;;;;;4959901;28;20038;-82
2023/12/04 01:36:27;;;;;;;9.52;6.43;;;13.50;73.40;;;;;;4963288;28;20035;-83
2023/12/04 01:39:00;;;;;;;9.07;6.25;;;13.60;73.50;;;;;;4957109;28;20030;-82
2023/12/04 01:41:47;;;;;;;9.07;5.93;;;13.60;73.50;;;;;;4951279;28;20466;-82
2023/12/04 01:44:22;;;;;;;8.98;6.20;;;13.60;73.50;;;;;;4974268;28;20030;-82
2023/12/04 01:46:48;;;;;;;10.20;6.32;;;13.60;73.50;;;;;;4956935;28;20077;-82
2023/12/04 01:49:13;;;;;;;8.40;5.72;;;13.60;73.60;;;;;;4956682;28;20117;-83
2023/12/04 01:51:39;;;;;;;8.52;5.78;;;13.60;73.60;;;;;;4956740;28;20023;-82
2023/12/04 01:54:06;;;;;;;9.73;6.75;;;13.60;73.60;;;;;;4974521;28;20456;-82
2023/12/04 01:56:33;;;;;;;9.05;6.15;;;13.70;73.70;;;;;;4956921;28;20090;-82
2023/12/04 01:58:59;;;;;;;9.32;6.03;;;13.50;74.10;;;;;;4956654;28;20027;-82
2023/12/04 02:01:25;;;;;;;9.02;6.00;;;13.60;73.70;;;;;;4956642;28;20027;-83
2023/12/04 02:03:51;;;;;;;8.88;5.78;;;13.50;74.20;;;;;;4956588;28;20051;-82
2023/12/04 02:06:19;;;;;;;8.73;6.00;;;13.60;73.80;;;;;;4956741;28;20066;-82
2023/12/04 02:08:46;;;;;;;8.75;5.68;;;13.60;73.80;;;;;;4956652;28;20027;-83
2023/12/04 02:11:12;;;;;;;7.90;5.40;;;13.40;73.70;;;;;;4956545;28;20475;-82
2023/12/04 02:13:38;;;;;;;9.10;5.72;;;13.60;73.80;;;;;;4956449;28;20123;-82
2023/12/04 02:16:06;;;;;;;8.70;5.72;;;13.60;73.80;;;;;;4956446;28;20046;-82
2023/12/04 02:18:33;;;;;;;8.45;5.40;;;13.50;73.70;;;;;;4956488;28;20026;-82
2023/12/04 02:20:59;;;;;;;8.95;6.10;;;13.50;73.80;;;;;;4956517;28;20054;-82
2023/12/04 02:23:25;;;;;;;8.85;5.55;;;13.50;73.90;;;;;;4956367;28;20030;-82
2023/12/04 02:25:53;;;;;;;9.45;6.32;;;13.50;73.80;;;;;;4973759;28;20030;-82
2023/12/04 02:28:20;;;;;;;9.70;5.97;;;13.60;73.90;;;;;;4956273;28;20865;-82
2023/12/04 02:30:47;;;;;;;7.97;5.32;;;13.50;73.90;;;;;;4956350;28;20066;-82
2023/12/04 02:33:13;;;;;;;8.30;5.57;;;13.50;73.90;;;;;;4956227;28;20026;-83
2023/12/04 02:35:40;;;;;;;8.70;5.60;;;13.50;73.90;;;;;;4956364;28;20023;-82
2023/12/04 02:38:06;;;;;;;8.75;6.00;;;13.50;73.80;;;;;;4956223;28;20027;-82
2023/12/04 02:40:32;;;;;;;7.90;5.03;;;13.50;73.80;;;;;;4956108;28;20046;-82
2023/12/04 02:42:57;;;;;;;9.07;6.10;;;13.50;73.80;;;;;;4956160;28;20472;-82
2023/12/04 02:45:23;;;;;;;8.85;5.50;;;13.50;73.80;;;;;;4956214;28;20057;-82
2023/12/04 02:47:48;;;;;;;8.45;5.35;;;13.50;73.90;;;;;;4956254;28;20035;-82
2023/12/04 02:50:14;;;;;;;8.02;5.65;;;13.50;73.90;;;;;;4956002;28;20035;-82
2023/12/04 02:52:39;;;;;;;8.25;5.43;;;13.50;73.90;;;;;;4956120;28;20031;-82
2023/12/04 02:55:05;;;;;;;8.27;5.20;;;13.50;73.90;;;;;;4956278;28;20015;-82
2023/12/04 02:57:31;;;;;;;8.80;5.47;;;13.50;73.90;;;;;;4956241;28;20473;-82
2023/12/04 02:59:56;;;;;;;8.25;5.40;;;13.50;73.90;;;;;;4955898;28;20395;-82
2023/12/04 03:02:22;;;;;;;8.82;5.72;;;13.50;74.00;;;;;;4956020;28;20035;-82
2023/12/04 03:04:47;;;;;;;8.52;5.57;;;13.50;74.00;;;;;;4956076;28;20114;-82
2023/12/04 03:07:12;;;;;;;8.35;5.43;;;13.50;74.00;;;;;;4956037;28;20069;-82
2023/12/04 03:09:38;;;;;;;7.55;4.88;;;13.50;74.10;;;;;;4955905;28;20035;-82
2023/12/04 03:12:04;;;;;;;7.78;5.15;;;13.50;74.10;;;;;;4955981;28;20027;-81
2023/12/04 03:14:29;;;;;;;7.53;4.80;;;13.50;74.10;;;;;;4959500;28;20027;-82
2023/12/04 03:16:55;;;;;;;8.10;5.43;;;13.50;74.10;;;;;;4957023;28;20153;-80
2023/12/04 03:19:20;;;;;;;7.78;5.18;;;13.50;74.10;;;;;;4958985;28;20857;-81
2023/12/04 03:21:46;;;;;;;8.00;5.35;;;13.40;74.10;;;;;;4959555;28;20114;-82
2023/12/04 03:24:11;;;;;;;8.52;5.47;;;13.50;74.10;;;;;;4959551;28;20498;-82
2023/12/04 03:26:37;;;;;;;8.88;5.90;;;13.40;74.10;;;;;;4959654;28;20027;-82
2023/12/04 03:29:02;;;;;;;7.72;4.78;;;13.50;74.20;;;;;;4959251;28;20027;-83
2023/12/04 03:31:28;;;;;;;8.23;5.20;;;13.50;74.20;;;;;;4959336;28;20037;-83
2023/12/04 03:34:02;;;;;;;8.23;5.18;;;13.50;74.20;;;;;;4959281;28;20051;-82
2023/12/04 03:36:32;;;;;;;7.43;4.80;;;13.50;74.10;;;;;;4959419;28;20046;-82
2023/12/04 03:38:58;;;;;;;8.00;4.90;;;13.50;74.20;;;;;;4976829;28;20484;-82
2023/12/04 03:41:24;;;;;;;7.57;4.78;;;13.50;74.20;;;;;;4959031;28;20033;-82
2023/12/04 03:43:49;;;;;;;7.70;4.97;;;13.50;74.20;;;;;;4959118;28;20536;-82
2023/12/04 03:46:15;;;;;;;7.68;5.00;;;13.50;74.20;;;;;;4959256;28;20440;-83
2023/12/04 03:48:40;;;;;;;7.85;4.88;;;13.50;74.20;;;;;;4958975;28;20027;-83
2023/12/04 03:51:06;;;;;;;8.95;5.32;;;13.50;74.20;;;;;;4958901;28;20023;-82
2023/12/04 03:53:32;;;;;;;7.90;5.00;;;13.50;74.10;;;;;;4959030;28;20031;-82
2023/12/04 03:56:00;;;;;;;7.68;4.90;;;13.50;74.10;;;;;;4959145;28;20069;-82
2023/12/04 03:58:26;;;;;;;8.07;5.13;;;13.50;74.10;;;;;;4958858;28;20027;-82
2023/12/04 04:00:51;;;;;;;7.57;5.25;;;13.50;74.10;;;;;;4958959;28;20070;-82
2023/12/04 04:03:17;;;;;;;7.75;5.30;;;13.50;74.10;;;;;;4959016;28;20542;-82
2023/12/04 04:05:42;;;;;;;8.35;5.15;;;13.50;74.10;;;;;;4958750;28;20502;-82
2023/12/04 04:08:12;;;;;;;8.07;5.00;;;13.50;74.20;;;;;;4958738;28;20066;-83
2023/12/04 04:10:59;;;;;;;7.40;4.65;;;13.50;74.30;;;;;;4975890;28;20051;-82
2023/12/04 04:13:41;;;;;;;8.55;5.25;;;13.50;74.20;;;;;;4975884;28;20035;-82
2023/12/04 04:16:15;;;;;;;8.68;4.95;;;13.40;74.20;;;;;;4975534;28;20118;-82
2023/12/04 04:19:14;;;;;;;7.75;4.97;;;13.50;74.20;;;;;;4958502;28;20031;-82
2023/12/04 04:21:47;;;;;;;7.60;4.93;;;13.50;74.30;;;;;;4975383;28;20404;-82
2023/12/04 04:24:13;;;;;;;7.82;5.00;;;13.50;74.20;;;;;;4955046;28;20117;-82
2023/12/04 04:26:40;;;;;;;7.72;4.88;;;13.60;74.30;;;;;;4955997;28;20123;-81
2023/12/04 04:29:05;;;;;;;7.53;4.68;;;13.40;74.20;;;;;;4955617;28;20384;-83
2023/12/04 04:31:31;;;;;;;7.10;4.57;;;13.50;74.20;;;;;;4955565;28;20041;-82
2023/12/04 04:33:56;;;;;;;7.50;4.65;;;13.40;74.20;;;;;;4955704;28;20758;-81
2023/12/04 04:36:22;;;;;;;6.88;4.45;;;13.50;74.30;;;;;;4955039;28;20097;-82
2023/12/04 04:38:47;;;;;;;7.60;4.75;;;13.40;74.20;;;;;;4953847;28;20031;-81
2023/12/04 04:41:15;;;;;;;7.03;4.70;;;13.40;74.20;;;;;;4954674;28;20089;-81
2023/12/04 04:43:40;;;;;;;8.60;4.75;;;13.50;74.30;;;;;;4954902;28;20311;-79
2023/12/04 04:46:06;;;;;;;6.80;4.40;;;13.40;74.20;;;;;;4954934;28;20034;-81
2023/12/04 04:48:31;;;;;;;7.70;4.78;;;13.40;74.20;;;;;;4954964;28;20034;-81
2023/12/04 04:50:57;;;;;;;6.78;4.53;;;13.40;74.20;;;;;;4954157;28;20030;-80
2023/12/04 04:53:22;;;;;;;8.02;4.65;;;13.40;74.20;;;;;;4971904;28;20031;-80
2023/12/04 04:55:48;;;;;;;7.35;4.68;;;13.40;74.30;;;;;;4952317;28;20439;-79
2023/12/04 04:58:13;;;;;;;7.53;4.70;;;13.40;74.20;;;;;;4975105;28;20515;-79
2023/12/04 05:00:39;;;;;;;7.40;4.90;;;13.40;74.20;;;;;;4973693;28;20065;-80
2023/12/04 05:03:04;;;;;;;7.43;4.57;;;13.40;74.30;;;;;;4961262;28;20069;-81
2023/12/04 05:05:30;;;;;;;7.20;4.68;;;13.40;74.20;;;;;;4935312;29;20897;-80
2023/12/04 05:07:55;;;;;;;6.93;4.20;;;13.40;74.30;;;;;;4943533;28;20031;-81
2023/12/04 05:10:21;;;;;;;7.22;4.45;;;13.40;74.30;;;;;;4954000;28;20029;-80
2023/12/04 05:12:46;;;;;;;7.28;4.63;;;13.40;74.30;;;;;;4953365;28;20057;-82
2023/12/04 05:17:56;;;;;;;7.43;4.63;;;13.30;74.30;;;;;;4973837;28;20160;-78
2023/12/04 05:20:21;;;;;;;7.13;4.45;;;13.40;74.30;;;;;;4934076;29;20019;-80
2023/12/04 05:22:48;;;;;;;7.13;4.43;;;13.40;74.40;;;;;;4958837;28;20039;-78
2023/12/04 05:25:14;;;;;;;7.10;4.53;;;13.40;74.40;;;;;;4953908;28;20038;-79
2023/12/04 05:27:39;;;;;;;7.20;4.63;;;13.30;74.30;;;;;;4953118;28;20030;-79
2023/12/04 05:30:05;;;;;;;7.53;4.88;;;13.40;74.40;;;;;;4952877;28;20023;-80
2023/12/04 05:32:31;;;;;;;6.85;4.30;;;13.40;74.40;;;;;;4967239;28;20106;-78
2023/12/04 05:34:56;;;;;;;6.85;4.22;;;13.40;74.40;;;;;;4952879;28;20118;-80
2023/12/04 05:37:22;;;;;;;7.13;4.53;;;13.40;74.40;;;;;;4953137;28;20027;-80
2023/12/04 05:39:47;;;;;;;7.40;4.65;;;13.40;74.40;;;;;;4952852;28;20018;-80
2023/12/04 05:42:13;;;;;;;7.20;4.50;;;13.40;74.40;;;;;;4953111;28;20035;-80
2023/12/04 05:44:38;;;;;;;7.00;4.20;;;13.40;74.40;;;;;;4953072;28;20038;-80
2023/12/04 05:47:04;;;;;;;7.50;4.75;;;13.40;74.40;;;;;;4952920;28;20038;-80
2023/12/04 05:49:30;;;;;;;6.47;4.18;;;13.40;74.40;;;;;;4952950;28;20031;-78
2023/12/04 05:51:56;;;;;;;7.35;4.30;;;13.40;74.40;;;;;;4952386;28;20105;-80
2023/12/04 05:54:21;;;;;;;7.72;4.53;;;13.40;74.40;;;;;;4952789;28;20599;-78
2023/12/04 05:56:47;;;;;;;6.90;4.38;;;13.40;74.40;;;;;;4952882;28;20538;-79
2023/12/04 05:59:12;;;;;;;6.60;4.22;;;13.40;74.40;;;;;;4970133;28;20023;-78
2023/12/04 06:01:38;;;;;;;6.43;3.95;;;13.40;74.30;;;;;;4952692;28;20057;-79
2023/12/04 06:04:03;;;;;;;6.55;4.15;;;13.40;74.30;;;;;;4952726;28;20031;-80
2023/12/04 06:06:29;;;;;;;6.82;4.07;;;13.40;74.30;;;;;;4952736;28;20031;-79
2023/12/04 06:08:54;;;;;;;6.38;3.85;;;13.40;74.30;;;;;;4952405;28;20030;-80
2023/12/04 06:11:20;;;;;;;7.25;4.47;;;13.40;74.40;;;;;;4952346;28;20037;-79
2023/12/04 06:13:45;;;;;;;6.68;4.10;;;13.40;74.40;;;;;;4952521;28;20023;-79
2023/12/04 06:16:11;;;;;;;7.00;4.55;;;13.40;74.30;;;;;;4952341;28;20550;-79
2023/12/04 06:18:36;;;;;;;7.57;4.68;;;13.40;74.30;;;;;;4952628;28;20027;-80
2023/12/04 06:21:02;;;;;;;6.47;3.90;;;13.40;74.30;;;;;;4952459;28;20392;-79
2023/12/04 06:23:27;;;;;;;6.80;4.22;;;13.40;74.30;;;;;;4952712;28;20499;-78
2023/12/04 06:25:53;;;;;;;6.90;4.00;;;13.40;74.30;;;;;;4952442;28;20027;-80
2023/12/04 06:28:19;;;;;;;6.90;4.22;;;13.40;74.30;;;;;;4952647;28;20106;-80
2023/12/04 06:30:45;;;;;;;6.75;4.03;;;13.40;74.20;;;;;;4969773;28;20033;-80
2023/12/04 06:33:12;;;;;;;6.35;4.00;;;13.30;74.20;;;;;;4952653;28;20026;-80
2023/12/04 06:35:38;;;;;;;6.45;4.18;;;13.40;74.30;;;;;;4952980;28;20066;-79
2023/12/04 06:38:07;;;;;;;6.43;4.03;;;13.40;74.50;;;;;;4952741;28;20407;-80
2023/12/04 06:40:33;;;;;;;6.20;3.92;;;13.40;74.20;;;;;;4952116;28;20027;-78
2023/12/04 06:42:58;;;;;;;6.65;4.05;;;13.40;74.20;;;;;;4970129;28;20031;-80
2023/12/04 06:45:24;;;;;;;6.97;4.15;;;13.40;74.20;;;;;;4952439;28;20053;-79
2023/12/04 06:47:51;;;;;;;6.60;3.97;;;13.40;74.10;;;;;;4953764;28;20026;-80
2023/12/04 06:50:16;;;;;;;6.72;4.20;;;13.40;74.20;;;;;;4956036;28;20032;-79
2023/12/04 06:52:42;;;;;;;6.28;4.00;;;13.40;74.20;;;;;;4956613;28;20041;-79
2023/12/04 06:55:08;;;;;;;6.38;3.90;;;13.40;74.10;;;;;;4956031;28;20093;-78
2023/12/04 06:57:34;;;;;;;7.15;4.40;;;13.40;74.10;;;;;;4956652;28;20026;-79
2023/12/04 07:00:00;;;;;;;6.35;3.85;;;13.40;74.00;;;;;;4955567;28;20027;-78
2023/12/04 07:02:25;;;;;;;6.38;3.75;;;13.40;73.90;;;;;;4956003;28;20081;-80
2023/12/04 07:04:51;;;;;;;7.50;4.15;;;13.40;73.90;;;;;;4955901;28;20039;-78
2023/12/04 07:07:16;;;;;;;6.80;4.00;;;13.40;74.00;;;;;;4956035;28;20546;-80
2023/12/04 07:09:42;;;;;;;6.50;4.13;;;13.40;73.90;;;;;;4955687;28;20030;-80
2023/12/04 07:12:07;;;;;;;6.20;3.58;;;13.40;73.90;;;;;;4973028;28;20045;-80
2023/12/04 07:14:33;;;;;;;6.78;3.95;;;13.40;73.90;;;;;;4956070;28;20026;-79
2023/12/04 07:17:00;;;;;;;7.35;4.40;;;13.40;73.90;;;;;;4956243;28;20802;-79
2023/12/04 07:19:26;;;;;;;5.95;3.50;;;13.40;73.90;;;;;;4956021;28;20034;-80
2023/12/04 07:21:52;;;;;;;6.50;3.90;;;13.40;74.00;;;;;;4973294;28;20037;-80
2023/12/04 07:24:17;;;;;;;5.80;3.55;;;13.40;73.90;;;;;;4956001;28;20211;-80
2023/12/04 07:26:43;;;;;;;6.50;3.75;;;13.30;73.80;;;;;;4956125;28;20035;-80
2023/12/04 07:29:09;;;;;;;6.50;4.13;;;13.40;73.80;;;;;;4956093;28;20496;-79
2023/12/04 07:31:34;;;;;;;6.20;3.70;;;13.40;73.80;;;;;;4955649;28;20054;-79
2023/12/04 07:34:01;;;;;;;6.10;3.78;;;13.40;73.80;;;;;;4955790;28;20668;-80
2023/12/04 07:36:27;;;;;;;6.35;3.78;;;13.40;73.80;;;;;;4973120;28;20015;-79
2023/12/04 07:38:53;;;;;;;6.10;3.78;;;13.40;73.80;;;;;;4973035;28;20386;-79
2023/12/04 07:41:19;;;;;;;6.63;4.00;;;13.40;73.70;;;;;;4955781;28;20026;-80
2023/12/04 07:43:45;;;;;;;6.30;3.70;;;13.40;73.70;;;;;;4955537;28;20068;-79
2023/12/04 07:46:11;;;;;;;5.78;3.50;;;13.40;73.60;;;;;;4973111;28;20065;-80
2023/12/04 07:48:37;;;;;;;6.32;3.88;;;13.40;73.70;;;;;;4972733;28;20065;-80
2023/12/04 07:51:03;;;;;;;6.45;4.05;;;13.40;73.70;;;;;;4955643;28;20490;-80
2023/12/04 07:53:28;;;;;;;5.90;3.53;;;13.40;73.70;;;;;;4955366;28;20066;-80
2023/12/04 07:55:54;;;;;;;6.60;3.95;;;13.40;73.60;;;;;;4955165;28;20392;-79
2023/12/04 07:58:19;;;;;;;6.75;3.95;;;13.40;73.60;;;;;;4955332;28;20109;-79
2023/12/04 08:00:45;;;;;;;6.30;3.80;;;13.40;73.60;;;;;;4972459;28;20437;-80
2023/12/04 08:03:10;;;;;;;7.03;3.60;;;13.40;73.50;;;;;;4972354;28;20027;-80
2023/12/04 08:05:36;;;;;;;6.63;3.70;;;13.40;73.50;;;;;;4955128;28;20031;-78
2023/12/04 08:08:02;;;;;;;6.10;3.60;;;13.40;73.50;;;;;;4955079;28;20034;-80
2023/12/04 08:10:27;;;;;;;5.95;3.60;;;13.40;73.50;;;;;;4954290;28;20391;-79
2023/12/04 08:12:53;;;;;;;6.22;3.85;;;13.40;73.50;;;;;;4954626;28;20110;-79
2023/12/04 08:15:18;;;;;;;6.53;3.90;;;13.40;73.50;;;;;;4954734;28;20023;-80
2023/12/04 08:17:44;;;;;;;6.78;3.75;;;13.40;73.50;;;;;;4954750;28;20039;-80
2023/12/04 08:20:13;;;;;;;6.05;3.65;;;13.40;73.40;;;;;;4954707;28;20374;-80
2023/12/04 08:22:41;;;;;;;5.80;3.50;;;13.40;73.40;;;;;;4971985;28;20033;-80
2023/12/04 08:25:07;;;;;;;6.47;3.92;;;13.40;73.40;;;;;;4954552;28;20031;-79
2023/12/04 08:27:33;;;;;;;6.00;3.33;;;13.30;73.40;;;;;;4954676;28;20042;-81
2023/12/04 08:29:58;;;;;;;6.57;3.88;;;13.40;73.30;;;;;;4953812;28;20023;-78
2023/12/04 08:32:26;;;;;;;6.20;3.83;;;13.40;73.30;;;;;;4953715;28;20037;-79
2023/12/04 08:34:51;;;;;;;6.43;3.75;;;13.40;73.40;;;;;;4953510;28;20546;-78
2023/12/04 08:37:18;;;;;;;5.63;3.28;;;13.40;73.40;;;;;;4953433;28;20050;-78
2023/12/04 08:39:44;;;;;;;6.20;3.72;;;13.40;73.30;;;;;;4953187;28;20088;-79
2023/12/04 08:42:09;;;;;;;6.70;4.05;;;13.40;73.30;;;;;;4953705;28;20031;-79
2023/12/04 08:44:35;;;;;;;6.15;3.60;;;13.40;73.30;;;;;;4953464;28;20038;-79
2023/12/04 08:47:01;;;;;;;5.97;3.65;;;13.40;73.30;;;;;;4952315;28;20463;-79
2023/12/04 08:49:26;;;;;;;5.68;3.53;;;13.40;73.30;;;;;;4952495;28;20035;-78
2023/12/04 08:51:55;;;;;;;6.35;3.67;;;13.40;73.30;;;;;;4952636;28;20042;-78
2023/12/04 08:54:21;;;;;;;6.22;3.75;;;13.40;73.30;;;;;;4953008;28;20027;-78
2023/12/04 08:56:46;;;;;;;6.50;3.63;;;13.40;73.30;;;;;;4953301;28;20033;-77
2023/12/04 08:59:12;;;;;;;5.78;3.35;;;13.40;73.40;;;;;;4952638;28;20113;-80
2023/12/04 09:01:38;;;;;;;6.50;3.90;;;13.40;73.40;;;;;;4952767;28;20268;-80
2023/12/04 09:04:04;;;;;;;6.10;3.53;;;13.40;73.40;;;;;;4970891;28;20423;-80
2023/12/04 09:06:30;;;;;;;6.00;3.42;;;13.50;73.50;;;;;;4953387;28;20034;-78
2023/12/04 09:08:55;;;;;;;6.00;3.70;;;13.40;73.50;;;;;;4970826;28;20029;-79
2023/12/04 09:11:21;;;;;;;5.97;3.55;;;13.40;73.50;;;;;;4952438;28;20480;-80
2023/12/04 09:13:46;;;;;;;5.80;3.45;;;13.40;73.50;;;;;;4953437;28;20019;-79
2023/12/04 09:16:12;;;;;;;6.32;3.70;;;13.40;73.50;;;;;;4953518;28;20027;-80
2023/12/04 09:18:37;;;;;;;5.80;3.55;;;13.40;73.60;;;;;;4953274;28;20070;-78
2023/12/04 09:21:04;;;;;;;6.25;3.50;;;13.40;73.50;;;;;;4952722;28;20023;-78
2023/12/04 09:23:30;;;;;;;6.38;3.65;;;13.40;73.50;;;;;;4953347;28;20031;-79
2023/12/04 09:25:56;;;;;;;5.60;3.30;;;13.40;73.40;;;;;;4953032;28;20031;-80
2023/12/04 09:28:21;;;;;;;6.07;3.45;;;13.40;73.40;;;;;;4952974;28;20031;-78
2023/12/04 09:30:47;;;;;;;5.78;3.35;;;13.40;73.50;;;;;;4953332;28;20026;-79
2023/12/04 09:33:12;;;;;;;5.85;3.33;;;13.40;73.50;;;;;;4952589;28;20810;-79
2023/12/04 09:35:38;;;;;;;6.18;3.38;;;13.40;73.50;;;;;;4953271;28;20026;-80
2023/12/04 09:38:03;;;;;;;5.80;3.40;;;13.40;73.50;;;;;;4952928;28;20468;-78
2023/12/04 09:40:29;;;;;;;6.15;3.50;;;13.40;73.50;;;;;;4952833;28;20029;-80
2023/12/04 09:42:55;;;;;;;6.03;3.30;;;13.40;73.60;;;;;;4952652;28;20031;-78
2023/12/04 09:45:23;;;;;;;5.95;3.55;;;13.40;73.60;;;;;;4953205;28;20095;-80
2023/12/04 09:47:49;;;;;;;6.10;3.40;;;13.40;73.60;;;;;;4952820;28;20027;-78
2023/12/04 09:50:17;;;;;;;6.22;3.38;;;13.40;73.60;;;;;;4952314;28;20081;-79
2023/12/04 09:52:42;;;;;;;5.45;3.05;;;13.40;73.60;;;;;;4952548;28;20109;-79
2023/12/04 09:55:08;;;;;;;5.75;3.20;;;13.40;73.60;;;;;;4952739;28;20031;-79
2023/12/04 09:57:34;;;;;;;5.40;3.15;;;13.40;73.70;;;;;;4969430;28;20026;-78
2023/12/04 10:00:02;;;;;;;6.32;3.38;;;13.40;73.70;;;;;;4969509;28;20023;-79
2023/12/04 10:02:28;;;;;;;6.07;3.55;;;13.40;73.70;;;;;;4952549;28;20494;-80
2023/12/04 10:04:53;;;;;;;5.43;3.25;;;13.40;73.70;;;;;;4952494;28;20033;-79
2023/12/04 10:07:19;;;;;;;5.97;3.38;;;13.40;73.60;;;;;;4952371;28;20039;-79
2023/12/04 10:09:45;;;;;;;6.40;3.70;;;13.40;73.60;;;;;;4951949;28;20062;-80
2023/12/04 10:12:10;;;;;;;5.68;3.20;;;13.40;73.60;;;;;;4952097;28;20045;-79
2023/12/04 10:14:36;;;;;;;5.85;3.50;;;13.40;73.70;;;;;;4952232;28;20027;-79
2023/12/04 10:17:15;;;;;;;5.60;3.22;;;13.40;73.70;;;;;;4951923;28;20065;-80
2023/12/04 10:19:40;;;;;;;5.70;3.28;;;13.40;73.70;;;;;;4952147;28;20055;-79
2023/12/04 10:22:10;;;;;;;5.88;3.10;;;13.40;73.60;;;;;;4951871;28;20495;-79
2023/12/04 10:24:37;;;;;;;5.78;3.30;;;13.40;73.60;;;;;;4952355;28;20043;-80
2023/12/04 10:27:11;;;;;;;5.75;3.20;;;13.40;73.60;;;;;;4952277;28;20542;-79
2023/12/04 10:29:52;;;;;;;5.47;3.22;;;13.40;73.70;;;;;;4952261;28;20069;-80
2023/12/04 10:32:21;;;;;;;6.35;3.70;;;13.40;73.70;;;;;;4952543;28;20100;-79
2023/12/04 10:34:47;;;;;;;5.53;3.10;;;13.40;73.60;;;;;;4952422;28;20029;-80
2023/12/04 10:37:13;;;;;;;5.70;3.15;;;13.40;73.60;;;;;;4952219;28;20023;-80
2023/12/04 10:39:50;;;;;;;5.80;3.40;;;13.40;73.50;;;;;;4952182;28;20031;-79
2023/12/04 10:42:26;;;;;;;6.00;3.40;;;13.40;73.40;;;;;;4952089;28;20031;-78
2023/12/04 10:44:54;;;;;;;5.90;3.20;;;13.40;73.40;;;;;;4952043;28;20129;-79
2023/12/04 10:47:21;;;;;;;5.93;3.53;;;13.40;73.40;;;;;;4951983;28;20070;-80
2023/12/04 10:49:50;;;;;;;5.55;3.50;;;13.40;73.50;;;;;;4969134;28;20037;-80
2023/12/04 10:52:16;;;;;;;5.65;3.13;;;13.30;73.50;;;;;;4951817;28;20027;-78
2023/12/04 10:54:41;;;;;;;4.78;2.85;;;13.40;73.40;;;;;;4951876;28;20031;-81
2023/12/04 10:57:09;;;;;;;5.00;3.00;;;13.40;73.40;;;;;;4952262;28;20023;-80
2023/12/04 10:59:38;;;;;;;5.53;3.10;;;13.40;74.00;;;;;;4953349;28;20034;-80
2023/12/04 11:02:05;;;;;;;5.20;3.08;;;13.40;73.40;;;;;;4956101;28;20373;-80
2023/12/04 11:04:33;;;;;;;7.53;3.47;;;13.40;73.40;;;;;;4956035;28;20026;-79
2023/12/04 11:07:02;;;;;;;8.00;3.22;;;13.40;73.10;;;;;;4956081;28;20035;-81
2023/12/04 11:09:29;;;;;;;7.18;3.47;;;13.40;73.10;;;;;;4955741;28;20026;-80
2023/12/04 11:11:59;;;;;;;6.95;3.28;;;13.30;72.90;;;;;;4955930;28;20062;-79
2023/12/04 11:14:30;;;;;;;5.88;3.40;;;13.40;72.90;;;;;;4973549;28;20110;-79
2023/12/04 11:17:01;;;;;;;6.70;3.27;;;13.40;73.00;;;;;;4955901;28;20483;-79
2023/12/04 11:19:32;;;;;;;5.70;3.33;;;13.40;72.90;;;;;;4955842;28;20031;-79
2023/12/04 11:22:03;;;;;;;6.40;3.65;;;13.30;72.70;;;;;;4956013;28;20491;-80
2023/12/04 11:24:28;;;;;;;7.03;3.83;;;13.40;72.80;;;;;;4955909;28;20031;-79
2023/12/04 11:26:54;;;;;;;7.53;3.85;;;13.40;72.80;;;;;;4955860;28;20033;-79
2023/12/04 11:29:21;;;;;;;8.18;3.72;;;13.40;72.80;;;;;;4955687;28;20407;-79
2023/12/04 11:31:47;;;;;;;6.63;3.50;;;13.30;72.60;;;;;;4955744;28;20411;-79
2023/12/04 11:34:13;;;;;;;7.13;3.55;;;13.30;72.60;;;;;;4957707;28;20027;-79
2023/12/04 11:36:39;;;;;;;6.43;3.60;;;13.30;72.60;;;;;;4959379;28;20027;-79
2023/12/04 11:39:12;;;;;;;6.00;3.38;;;13.30;72.60;;;;;;4976428;28;20103;-81
2023/12/04 11:41:39;;;;;;;7.50;3.75;;;13.30;72.60;;;;;;4959365;28;20484;-81
2023/12/04 11:44:15;;;;;;;6.90;3.67;;;13.20;72.40;;;;;;4959368;28;20106;-81
2023/12/04 11:46:56;;;;;;;7.00;3.60;;;13.30;72.50;;;;;;4959096;28;20031;-81
2023/12/04 11:49:30;;;;;;;6.20;3.42;;;13.30;72.50;;;;;;4959057;28;20033;-80
2023/12/04 11:51:56;;;;;;;6.35;3.30;;;13.30;72.50;;;;;;4958813;28;20126;-80
2023/12/04 11:54:25;;;;;;;6.25;3.47;;;13.30;72.50;;;;;;4959176;28;20505;-79
2023/12/04 11:57:20;;;;;;;6.63;3.58;;;13.30;72.40;;;;;;4959041;28;20031;-80
2023/12/04 11:59:46;;;;;;;5.70;3.40;;;13.30;72.40;;;;;;4958950;28;20019;-80
2023/12/04 12:02:11;;;;;;;7.20;3.72;;;13.30;72.40;;;;;;4958992;28;20395;-80
2023/12/04 12:04:37;;;;;;;6.60;3.47;;;13.30;72.40;;;;;;4958964;28;20023;-79
2023/12/04 12:07:05;;;;;;;7.15;4.15;;;13.30;72.40;;;;;;4959111;28;20054;-80
2023/12/04 12:09:32;;;;;;;7.50;3.70;;;13.30;72.40;;;;;;4958654;28;20121;-80
2023/12/04 12:12:01;;;;;;;6.43;3.67;;;13.30;72.40;;;;;;4958591;28;20077;-80
2023/12/04 12:14:27;;;;;;;7.95;4.18;;;13.30;72.40;;;;;;4958778;28;20070;-79
2023/12/04 12:16:55;;;;;;;6.35;3.65;;;13.30;72.40;;;;;;4958549;28;20479;-79
2023/12/04 12:19:21;;;;;;;6.57;3.28;;;13.30;72.50;;;;;;4958381;28;20078;-79
2023/12/04 12:21:49;;;;;;;6.20;3.65;;;13.30;72.50;;;;;;4975797;28;20023;-79
2023/12/04 12:24:14;;;;;;;6.82;3.90;;;13.30;72.50;;;;;;4958484;28;20082;-80
2023/12/04 12:26:40;;;;;;;6.78;3.42;;;13.30;72.50;;;;;;4958454;28;20270;-80
2023/12/04 12:29:06;;;;;;;6.28;3.80;;;13.30;72.60;;;;;;4958208;28;20027;-80
2023/12/04 12:31:32;;;;;;;5.95;3.50;;;13.30;72.50;;;;;;4958360;28;20373;-80
2023/12/04 12:33:57;;;;;;;6.13;3.40;;;13.30;72.60;;;;;;4958334;28;20034;-80
2023/12/04 12:36:23;;;;;;;6.75;3.55;;;13.30;72.60;;;;;;4958306;28;20026;-80
2023/12/04 12:38:49;;;;;;;6.60;3.95;;;13.30;72.50;;;;;;4958017;28;20031;-80
2023/12/04 12:41:20;;;;;;;6.18;3.33;;;13.30;72.50;;;;;;4958122;28;20023;-80
2023/12/04 12:43:45;;;;;;;6.88;3.67;;;13.30;72.50;;;;;;4958106;28;20035;-79
2023/12/04 12:46:11;;;;;;;6.40;3.70;;;13.30;73.00;;;;;;4957065;28;20053;-79
2023/12/04 12:48:37;;;;;;;6.10;3.45;;;13.30;72.50;;;;;;4957740;28;20125;-80
2023/12/04 12:51:03;;;;;;;6.10;3.60;;;13.30;72.60;;;;;;4957754;28;20122;-80
2023/12/04 12:53:31;;;;;;;6.63;3.58;;;13.30;72.60;;;;;;4957861;28;20034;-81
2023/12/04 12:55:59;;;;;;;6.40;3.10;;;13.30;72.60;;;;;;4975347;28;20026;-80
2023/12/04 12:58:25;;;;;;;11.45;6.13;;;13.30;72.60;;;;;;4957873;28;20023;-80
2023/12/04 13:00:51;;;;;;;8.57;4.60;;;13.30;70.40;;;;;;4957866;28;20023;-80
2023/12/04 13:03:17;;;;;;;8.77;5.00;;;13.20;70.90;;;;;;4958170;28;20616;-79
2023/12/04 13:05:42;;;;;;;9.32;4.88;;;13.20;71.00;;;;;;4975476;28;20130;-79